sensor_id;sensor_type;location;lat;lon;timestamp;P1;durP1;ratioP1;P2;durP2;ratioP2
4895;SDS011;2463;49.948;8.472;2023-05-10T00:00:30;87.28;;;3.75;;
4895;SDS011;2463;49.948;8.472;2023-05-10T00:02:57;89.68;;;4.00;;
4895;SDS011;2463;49.948;8.472;2023-05-10T00:05:24;87.78;;;3.90;;
4895;SDS011;2463;49.948;8.472;2023-05-10T00:07:50;87.72;;;4.20;;
4895;SDS011;2463;49.948;8.472;2023-05-10T00:10:17;87.82;;;3.92;;
4895;SDS011;2463;49.948;8.472;2023-05-10T00:12:44;88.00;;;3.85;;
4895;SDS011;2463;49.948;8.472;2023-05-10T00:15:11;88.07;;;4.20;;
4895;SDS011;2463;49.948;8.472;2023-05-10T00:17:37;87.93;;;3.90;;
4895;SDS011;2463;49.948;8.472;2023-05-10T00:20:05;87.88;;;3.90;;
4895;SDS011;2463;49.948;8.472;2023-05-10T00:22:32;87.88;;;3.88;;
4895;SDS011;2463;49.948;8.472;2023-05-10T00:24:59;88.32;;;4.00;;
4895;SDS011;2463;49.948;8.472;2023-05-10T00:27:26;88.43;;;4.15;;
4895;SDS011;2463;49.948;8.472;2023-05-10T00:29:52;88.55;;;4.10;;
4895;SDS011;2463;49.948;8.472;2023-05-10T00:32:20;88.05;;;4.07;;
4895;SDS011;2463;49.948;8.472;2023-05-10T00:34:47;88.13;;;3.90;;
4895;SDS011;2463;49.948;8.472;2023-05-10T00:37:13;88.35;;;4.13;;
4895;SDS011;2463;49.948;8.472;2023-05-10T00:39:40;88.50;;;4.07;;
4895;SDS011;2463;49.948;8.472;2023-05-10T00:42:07;88.22;;;4.10;;
4895;SDS011;2463;49.948;8.472;2023-05-10T00:44:33;88.07;;;3.95;;
4895;SDS011;2463;49.948;8.472;2023-05-10T00:47:00;89.95;;;4.00;;
4895;SDS011;2463;49.948;8.472;2023-05-10T00:49:27;87.88;;;4.05;;
4895;SDS011;2463;49.948;8.472;2023-05-10T00:51:54;87.97;;;4.05;;
4895;SDS011;2463;49.948;8.472;2023-05-10T00:54:21;88.18;;;4.00;;
4895;SDS011;2463;49.948;8.472;2023-05-10T00:56:48;87.60;;;4.00;;
4895;SDS011;2463;49.948;8.472;2023-05-10T00:59:15;87.72;;;4.00;;
4895;SDS011;2463;49.948;8.472;2023-05-10T01:01:46;87.63;;;3.90;;
4895;SDS011;2463;49.948;8.472;2023-05-10T01:04:13;89.93;;;4.38;;
4895;SDS011;2463;49.948;8.472;2023-05-10T01:06:41;87.93;;;4.10;;
4895;SDS011;2463;49.948;8.472;2023-05-10T01:09:08;88.18;;;3.95;;
4895;SDS011;2463;49.948;8.472;2023-05-10T01:11:36;88.13;;;3.97;;
4895;SDS011;2463;49.948;8.472;2023-05-10T01:14:04;87.88;;;4.13;;
4895;SDS011;2463;49.948;8.472;2023-05-10T01:16:33;87.72;;;4.00;;
4895;SDS011;2463;49.948;8.472;2023-05-10T01:19:05;87.80;;;4.10;;
4895;SDS011;2463;49.948;8.472;2023-05-10T01:33:39;88.32;;;3.80;;
4895;SDS011;2463;49.948;8.472;2023-05-10T01:36:23;88.28;;;4.13;;
4895;SDS011;2463;49.948;8.472;2023-05-10T01:39:02;87.55;;;4.00;;
4895;SDS011;2463;49.948;8.472;2023-05-10T01:44:34;88.25;;;4.00;;
4895;SDS011;2463;49.948;8.472;2023-05-10T01:47:12;87.90;;;3.80;;
4895;SDS011;2463;49.948;8.472;2023-05-10T01:49:47;87.60;;;3.90;;
4895;SDS011;2463;49.948;8.472;2023-05-10T01:52:18;87.63;;;3.80;;
4895;SDS011;2463;49.948;8.472;2023-05-10T01:54:51;88.00;;;3.83;;
4895;SDS011;2463;49.948;8.472;2023-05-10T01:57:26;87.28;;;3.97;;
4895;SDS011;2463;49.948;8.472;2023-05-10T01:59:57;87.60;;;3.90;;
4895;SDS011;2463;49.948;8.472;2023-05-10T02:02:25;91.18;;;4.07;;
4895;SDS011;2463;49.948;8.472;2023-05-10T02:04:54;88.75;;;3.90;;
4895;SDS011;2463;49.948;8.472;2023-05-10T02:07:23;87.68;;;4.15;;
4895;SDS011;2463;49.948;8.472;2023-05-10T02:09:50;88.00;;;4.10;;
4895;SDS011;2463;49.948;8.472;2023-05-10T02:12:17;89.03;;;4.10;;
4895;SDS011;2463;49.948;8.472;2023-05-10T02:14:45;88.50;;;4.20;;
4895;SDS011;2463;49.948;8.472;2023-05-10T02:17:14;88.18;;;4.35;;
4895;SDS011;2463;49.948;8.472;2023-05-10T02:19:41;88.13;;;4.20;;
4895;SDS011;2463;49.948;8.472;2023-05-10T02:22:11;87.57;;;3.97;;
4895;SDS011;2463;49.948;8.472;2023-05-10T02:24:38;88.18;;;4.22;;
4895;SDS011;2463;49.948;8.472;2023-05-10T02:27:06;87.95;;;4.13;;
4895;SDS011;2463;49.948;8.472;2023-05-10T02:29:34;88.75;;;4.30;;
4895;SDS011;2463;49.948;8.472;2023-05-10T02:32:02;88.88;;;4.53;;
4895;SDS011;2463;49.948;8.472;2023-05-10T02:34:30;87.88;;;4.07;;
4895;SDS011;2463;49.948;8.472;2023-05-10T02:36:58;87.80;;;4.20;;
4895;SDS011;2463;49.948;8.472;2023-05-10T02:39:26;90.80;;;4.70;;
4895;SDS011;2463;49.948;8.472;2023-05-10T02:41:55;91.80;;;4.20;;
4895;SDS011;2463;49.948;8.472;2023-05-10T02:44:23;88.32;;;4.20;;
4895;SDS011;2463;49.948;8.472;2023-05-10T02:46:54;87.93;;;4.32;;
4895;SDS011;2463;49.948;8.472;2023-05-10T02:49:22;87.78;;;4.18;;
4895;SDS011;2463;49.948;8.472;2023-05-10T02:51:49;87.88;;;3.97;;
4895;SDS011;2463;49.948;8.472;2023-05-10T02:54:23;87.68;;;4.13;;
4895;SDS011;2463;49.948;8.472;2023-05-10T02:56:57;88.15;;;4.25;;
4895;SDS011;2463;49.948;8.472;2023-05-10T02:59:27;89.78;;;4.10;;
4895;SDS011;2463;49.948;8.472;2023-05-10T03:01:54;88.13;;;4.22;;
4895;SDS011;2463;49.948;8.472;2023-05-10T03:04:21;88.60;;;4.22;;
4895;SDS011;2463;49.948;8.472;2023-05-10T03:06:48;88.72;;;3.80;;
4895;SDS011;2463;49.948;8.472;2023-05-10T03:09:15;89.68;;;4.10;;
4895;SDS011;2463;49.948;8.472;2023-05-10T03:11:47;89.90;;;4.15;;
4895;SDS011;2463;49.948;8.472;2023-05-10T03:17:00;91.68;;;4.53;;
4895;SDS011;2463;49.948;8.472;2023-05-10T03:19:40;88.78;;;4.10;;
4895;SDS011;2463;49.948;8.472;2023-05-10T03:22:34;88.13;;;4.32;;
4895;SDS011;2463;49.948;8.472;2023-05-10T03:25:05;87.93;;;4.00;;
4895;SDS011;2463;49.948;8.472;2023-05-10T03:27:35;88.13;;;4.25;;
4895;SDS011;2463;49.948;8.472;2023-05-10T03:30:02;87.90;;;4.15;;
4895;SDS011;2463;49.948;8.472;2023-05-10T03:32:31;88.43;;;4.50;;
4895;SDS011;2463;49.948;8.472;2023-05-10T03:35:00;87.82;;;4.10;;
4895;SDS011;2463;49.948;8.472;2023-05-10T03:37:27;88.15;;;4.13;;
4895;SDS011;2463;49.948;8.472;2023-05-10T03:39:54;92.80;;;4.20;;
4895;SDS011;2463;49.948;8.472;2023-05-10T03:42:20;88.68;;;4.30;;
4895;SDS011;2463;49.948;8.472;2023-05-10T03:44:47;88.22;;;4.40;;
4895;SDS011;2463;49.948;8.472;2023-05-10T03:47:15;88.40;;;4.30;;
4895;SDS011;2463;49.948;8.472;2023-05-10T03:49:42;88.60;;;4.50;;
4895;SDS011;2463;49.948;8.472;2023-05-10T03:52:09;88.65;;;4.40;;
4895;SDS011;2463;49.948;8.472;2023-05-10T03:54:35;89.68;;;4.50;;
4895;SDS011;2463;49.948;8.472;2023-05-10T03:57:02;89.15;;;4.50;;
4895;SDS011;2463;49.948;8.472;2023-05-10T03:59:29;88.00;;;4.05;;
4895;SDS011;2463;49.948;8.472;2023-05-10T04:01:56;89.88;;;4.43;;
4895;SDS011;2463;49.948;8.472;2023-05-10T04:04:22;91.18;;;4.20;;
4895;SDS011;2463;49.948;8.472;2023-05-10T04:06:49;89.88;;;4.53;;
4895;SDS011;2463;49.948;8.472;2023-05-10T04:09:16;87.97;;;4.15;;
4895;SDS011;2463;49.948;8.472;2023-05-10T04:11:43;88.38;;;4.38;;
4895;SDS011;2463;49.948;8.472;2023-05-10T04:14:09;102.78;;;4.40;;
4895;SDS011;2463;49.948;8.472;2023-05-10T04:16:36;87.78;;;4.22;;
4895;SDS011;2463;49.948;8.472;2023-05-10T04:19:03;88.22;;;4.40;;
4895;SDS011;2463;49.948;8.472;2023-05-10T04:21:30;89.30;;;4.68;;
4895;SDS011;2463;49.948;8.472;2023-05-10T04:23:56;92.60;;;5.10;;
4895;SDS011;2463;49.948;8.472;2023-05-10T04:26:23;89.68;;;4.70;;
4895;SDS011;2463;49.948;8.472;2023-05-10T04:28:51;88.13;;;4.10;;
4895;SDS011;2463;49.948;8.472;2023-05-10T04:31:18;89.10;;;4.43;;
4895;SDS011;2463;49.948;8.472;2023-05-10T04:33:45;89.22;;;4.70;;
4895;SDS011;2463;49.948;8.472;2023-05-10T04:36:11;89.85;;;4.63;;
4895;SDS011;2463;49.948;8.472;2023-05-10T04:38:38;88.22;;;4.30;;
4895;SDS011;2463;49.948;8.472;2023-05-10T04:41:08;88.22;;;4.57;;
4895;SDS011;2463;49.948;8.472;2023-05-10T04:43:36;88.07;;;4.25;;
4895;SDS011;2463;49.948;8.472;2023-05-10T04:46:04;88.55;;;4.70;;
4895;SDS011;2463;49.948;8.472;2023-05-10T04:48:32;92.53;;;4.38;;
4895;SDS011;2463;49.948;8.472;2023-05-10T04:50:58;88.20;;;4.25;;
4895;SDS011;2463;49.948;8.472;2023-05-10T04:53:25;88.18;;;4.43;;
4895;SDS011;2463;49.948;8.472;2023-05-10T04:55:52;87.70;;;4.10;;
4895;SDS011;2463;49.948;8.472;2023-05-10T04:58:19;89.07;;;4.45;;
4895;SDS011;2463;49.948;8.472;2023-05-10T05:00:46;89.35;;;5.53;;
4895;SDS011;2463;49.948;8.472;2023-05-10T05:03:12;88.03;;;4.50;;
4895;SDS011;2463;49.948;8.472;2023-05-10T05:05:39;87.97;;;4.47;;
4895;SDS011;2463;49.948;8.472;2023-05-10T05:08:06;91.72;;;4.95;;
4895;SDS011;2463;49.948;8.472;2023-05-10T05:10:32;99.20;;;4.68;;
4895;SDS011;2463;49.948;8.472;2023-05-10T05:12:59;88.65;;;4.82;;
4895;SDS011;2463;49.948;8.472;2023-05-10T05:15:26;88.20;;;4.93;;
4895;SDS011;2463;49.948;8.472;2023-05-10T05:17:53;91.85;;;4.85;;
4895;SDS011;2463;49.948;8.472;2023-05-10T05:20:20;89.22;;;4.80;;
4895;SDS011;2463;49.948;8.472;2023-05-10T05:22:47;91.55;;;4.85;;
4895;SDS011;2463;49.948;8.472;2023-05-10T05:25:14;91.43;;;5.25;;
4895;SDS011;2463;49.948;8.472;2023-05-10T05:27:41;89.30;;;4.68;;
4895;SDS011;2463;49.948;8.472;2023-05-10T05:30:08;93.20;;;4.90;;
4895;SDS011;2463;49.948;8.472;2023-05-10T05:32:35;90.10;;;4.80;;
4895;SDS011;2463;49.948;8.472;2023-05-10T05:35:01;90.50;;;5.15;;
4895;SDS011;2463;49.948;8.472;2023-05-10T05:37:28;89.65;;;5.28;;
4895;SDS011;2463;49.948;8.472;2023-05-10T05:39:55;90.38;;;5.38;;
4895;SDS011;2463;49.948;8.472;2023-05-10T05:42:22;91.82;;;5.00;;
4895;SDS011;2463;49.948;8.472;2023-05-10T05:44:48;94.80;;;5.55;;
4895;SDS011;2463;49.948;8.472;2023-05-10T05:47:15;90.95;;;5.15;;
4895;SDS011;2463;49.948;8.472;2023-05-10T05:49:42;90.25;;;4.63;;
4895;SDS011;2463;49.948;8.472;2023-05-10T05:52:11;90.03;;;4.95;;
4895;SDS011;2463;49.948;8.472;2023-05-10T05:54:38;90.30;;;5.10;;
4895;SDS011;2463;49.948;8.472;2023-05-10T05:57:05;89.30;;;5.25;;
4895;SDS011;2463;49.948;8.472;2023-05-10T05:59:32;93.40;;;5.00;;
4895;SDS011;2463;49.948;8.472;2023-05-10T06:01:58;89.25;;;5.00;;
4895;SDS011;2463;49.948;8.472;2023-05-10T06:04:25;89.72;;;4.95;;
4895;SDS011;2463;49.948;8.472;2023-05-10T06:06:52;88.85;;;4.93;;
4895;SDS011;2463;49.948;8.472;2023-05-10T06:09:18;91.00;;;5.45;;
4895;SDS011;2463;49.948;8.472;2023-05-10T06:11:45;101.30;;;5.35;;
4895;SDS011;2463;49.948;8.472;2023-05-10T06:14:12;90.97;;;5.03;;
4895;SDS011;2463;49.948;8.472;2023-05-10T06:16:39;89.38;;;4.70;;
4895;SDS011;2463;49.948;8.472;2023-05-10T06:19:06;92.20;;;4.90;;
4895;SDS011;2463;49.948;8.472;2023-05-10T06:21:33;89.47;;;5.25;;
4895;SDS011;2463;49.948;8.472;2023-05-10T06:24:00;94.72;;;4.95;;
4895;SDS011;2463;49.948;8.472;2023-05-10T06:26:26;91.72;;;4.80;;
4895;SDS011;2463;49.948;8.472;2023-05-10T06:28:53;90.53;;;5.10;;
4895;SDS011;2463;49.948;8.472;2023-05-10T06:31:19;90.47;;;5.30;;
4895;SDS011;2463;49.948;8.472;2023-05-10T06:33:47;90.97;;;5.00;;
4895;SDS011;2463;49.948;8.472;2023-05-10T06:36:13;89.90;;;4.93;;
4895;SDS011;2463;49.948;8.472;2023-05-10T06:38:40;90.50;;;5.10;;
4895;SDS011;2463;49.948;8.472;2023-05-10T06:41:07;89.68;;;4.90;;
4895;SDS011;2463;49.948;8.472;2023-05-10T06:43:34;88.95;;;4.60;;
4895;SDS011;2463;49.948;8.472;2023-05-10T06:46:01;91.45;;;5.25;;
4895;SDS011;2463;49.948;8.472;2023-05-10T06:48:27;91.25;;;5.63;;
4895;SDS011;2463;49.948;8.472;2023-05-10T06:50:54;89.35;;;5.10;;
4895;SDS011;2463;49.948;8.472;2023-05-10T06:53:21;92.85;;;5.25;;
4895;SDS011;2463;49.948;8.472;2023-05-10T06:55:48;90.60;;;5.70;;
4895;SDS011;2463;49.948;8.472;2023-05-10T06:58:15;91.03;;;5.35;;
4895;SDS011;2463;49.948;8.472;2023-05-10T07:00:42;90.57;;;5.28;;
4895;SDS011;2463;49.948;8.472;2023-05-10T07:03:10;90.45;;;5.20;;
4895;SDS011;2463;49.948;8.472;2023-05-10T07:05:37;90.65;;;5.63;;
4895;SDS011;2463;49.948;8.472;2023-05-10T07:08:04;90.15;;;4.90;;
4895;SDS011;2463;49.948;8.472;2023-05-10T07:10:30;94.13;;;6.35;;
4895;SDS011;2463;49.948;8.472;2023-05-10T07:12:57;92.20;;;5.60;;
4895;SDS011;2463;49.948;8.472;2023-05-10T07:15:24;90.15;;;5.63;;
4895;SDS011;2463;49.948;8.472;2023-05-10T07:17:50;93.82;;;5.65;;
4895;SDS011;2463;49.948;8.472;2023-05-10T07:20:18;89.53;;;5.50;;
4895;SDS011;2463;49.948;8.472;2023-05-10T07:22:45;92.47;;;5.97;;
4895;SDS011;2463;49.948;8.472;2023-05-10T07:25:11;93.72;;;5.85;;
4895;SDS011;2463;49.948;8.472;2023-05-10T07:27:38;89.82;;;5.30;;
4895;SDS011;2463;49.948;8.472;2023-05-10T07:30:05;89.15;;;5.25;;
4895;SDS011;2463;49.948;8.472;2023-05-10T07:32:32;91.65;;;5.00;;
4895;SDS011;2463;49.948;8.472;2023-05-10T07:34:59;89.47;;;5.40;;
4895;SDS011;2463;49.948;8.472;2023-05-10T07:37:26;89.90;;;5.78;;
4895;SDS011;2463;49.948;8.472;2023-05-10T07:39:52;89.10;;;5.30;;
4895;SDS011;2463;49.948;8.472;2023-05-10T07:42:19;90.60;;;4.75;;
4895;SDS011;2463;49.948;8.472;2023-05-10T07:44:46;88.05;;;4.88;;
4895;SDS011;2463;49.948;8.472;2023-05-10T07:47:13;88.30;;;4.85;;
4895;SDS011;2463;49.948;8.472;2023-05-10T07:49:39;88.35;;;5.30;;
4895;SDS011;2463;49.948;8.472;2023-05-10T07:52:06;88.32;;;5.30;;
4895;SDS011;2463;49.948;8.472;2023-05-10T07:54:33;89.43;;;5.30;;
4895;SDS011;2463;49.948;8.472;2023-05-10T07:57:00;90.25;;;5.30;;
4895;SDS011;2463;49.948;8.472;2023-05-10T07:59:26;93.25;;;5.90;;
4895;SDS011;2463;49.948;8.472;2023-05-10T08:01:53;87.75;;;5.00;;
4895;SDS011;2463;49.948;8.472;2023-05-10T08:04:20;88.93;;;5.07;;
4895;SDS011;2463;49.948;8.472;2023-05-10T08:06:47;88.60;;;4.82;;
4895;SDS011;2463;49.948;8.472;2023-05-10T08:09:13;88.47;;;5.10;;
4895;SDS011;2463;49.948;8.472;2023-05-10T08:11:40;89.10;;;4.40;;
4895;SDS011;2463;49.948;8.472;2023-05-10T08:14:07;86.53;;;4.38;;
4895;SDS011;2463;49.948;8.472;2023-05-10T08:16:33;87.95;;;4.53;;
4895;SDS011;2463;49.948;8.472;2023-05-10T08:19:00;87.93;;;4.30;;
4895;SDS011;2463;49.948;8.472;2023-05-10T08:21:27;89.22;;;5.07;;
4895;SDS011;2463;49.948;8.472;2023-05-10T08:23:54;90.63;;;4.85;;
4895;SDS011;2463;49.948;8.472;2023-05-10T08:26:21;91.25;;;4.60;;
4895;SDS011;2463;49.948;8.472;2023-05-10T08:28:48;87.40;;;4.40;;
4895;SDS011;2463;49.948;8.472;2023-05-10T08:31:14;87.70;;;4.45;;
4895;SDS011;2463;49.948;8.472;2023-05-10T08:33:41;87.57;;;4.47;;
4895;SDS011;2463;49.948;8.472;2023-05-10T08:36:10;93.00;;;4.72;;
4895;SDS011;2463;49.948;8.472;2023-05-10T08:38:37;86.38;;;3.95;;
4895;SDS011;2463;49.948;8.472;2023-05-10T08:41:04;87.53;;;4.35;;
4895;SDS011;2463;49.948;8.472;2023-05-10T08:43:32;89.00;;;4.50;;
4895;SDS011;2463;49.948;8.472;2023-05-10T08:46:02;86.50;;;4.60;;
4895;SDS011;2463;49.948;8.472;2023-05-10T08:48:31;89.65;;;4.35;;
4895;SDS011;2463;49.948;8.472;2023-05-10T08:51:00;87.70;;;4.40;;
4895;SDS011;2463;49.948;8.472;2023-05-10T08:53:29;87.63;;;5.13;;
4895;SDS011;2463;49.948;8.472;2023-05-10T08:55:58;94.63;;;4.97;;
4895;SDS011;2463;49.948;8.472;2023-05-10T08:58:27;90.07;;;4.85;;
4895;SDS011;2463;49.948;8.472;2023-05-10T09:00:54;91.30;;;5.80;;
4895;SDS011;2463;49.948;8.472;2023-05-10T09:03:21;91.88;;;5.03;;
4895;SDS011;2463;49.948;8.472;2023-05-10T09:05:48;90.05;;;5.15;;
4895;SDS011;2463;49.948;8.472;2023-05-10T09:08:15;90.70;;;5.15;;
4895;SDS011;2463;49.948;8.472;2023-05-10T09:10:43;88.78;;;4.70;;
4895;SDS011;2463;49.948;8.472;2023-05-10T09:13:13;91.75;;;4.55;;
4895;SDS011;2463;49.948;8.472;2023-05-10T09:15:44;91.18;;;4.70;;
4895;SDS011;2463;49.948;8.472;2023-05-10T09:18:11;89.38;;;4.38;;
4895;SDS011;2463;49.948;8.472;2023-05-10T09:20:38;89.53;;;4.60;;
4895;SDS011;2463;49.948;8.472;2023-05-10T09:23:04;88.22;;;4.90;;
4895;SDS011;2463;49.948;8.472;2023-05-10T09:25:31;87.30;;;4.75;;
4895;SDS011;2463;49.948;8.472;2023-05-10T09:28:01;89.15;;;4.85;;
4895;SDS011;2463;49.948;8.472;2023-05-10T09:30:31;94.22;;;5.20;;
4895;SDS011;2463;49.948;8.472;2023-05-10T09:32:58;98.03;;;5.15;;
4895;SDS011;2463;49.948;8.472;2023-05-10T09:35:27;92.40;;;5.65;;
4895;SDS011;2463;49.948;8.472;2023-05-10T09:37:56;94.47;;;5.22;;
4895;SDS011;2463;49.948;8.472;2023-05-10T09:40:27;88.55;;;5.03;;
4895;SDS011;2463;49.948;8.472;2023-05-10T09:42:59;89.10;;;4.88;;
4895;SDS011;2463;49.948;8.472;2023-05-10T09:45:28;92.25;;;4.60;;
4895;SDS011;2463;49.948;8.472;2023-05-10T09:47:56;87.78;;;4.90;;
4895;SDS011;2463;49.948;8.472;2023-05-10T09:50:24;86.82;;;4.43;;
4895;SDS011;2463;49.948;8.472;2023-05-10T09:52:55;89.45;;;3.80;;
4895;SDS011;2463;49.948;8.472;2023-05-10T09:55:37;86.82;;;4.47;;
4895;SDS011;2463;49.948;8.472;2023-05-10T09:58:04;85.43;;;3.35;;
4895;SDS011;2463;49.948;8.472;2023-05-10T10:00:39;85.93;;;3.70;;
4895;SDS011;2463;49.948;8.472;2023-05-10T10:03:12;91.00;;;4.25;;
4895;SDS011;2463;49.948;8.472;2023-05-10T10:05:46;85.90;;;3.70;;
4895;SDS011;2463;49.948;8.472;2023-05-10T10:08:14;86.45;;;3.70;;
4895;SDS011;2463;49.948;8.472;2023-05-10T10:10:42;85.65;;;3.60;;
4895;SDS011;2463;49.948;8.472;2023-05-10T10:13:12;85.47;;;3.55;;
4895;SDS011;2463;49.948;8.472;2023-05-10T10:15:39;85.85;;;3.85;;
4895;SDS011;2463;49.948;8.472;2023-05-10T10:18:06;90.80;;;3.90;;
4895;SDS011;2463;49.948;8.472;2023-05-10T10:20:35;86.07;;;4.00;;
4895;SDS011;2463;49.948;8.472;2023-05-10T10:23:03;87.53;;;4.15;;
4895;SDS011;2463;49.948;8.472;2023-05-10T10:25:30;85.82;;;3.75;;
4895;SDS011;2463;49.948;8.472;2023-05-10T10:28:01;86.60;;;3.40;;
4895;SDS011;2463;49.948;8.472;2023-05-10T10:33:22;85.85;;;3.47;;
4895;SDS011;2463;49.948;8.472;2023-05-10T10:36:17;85.93;;;3.60;;
4895;SDS011;2463;49.948;8.472;2023-05-10T10:41:27;86.03;;;3.63;;
4895;SDS011;2463;49.948;8.472;2023-05-10T10:47:05;85.70;;;3.40;;
4895;SDS011;2463;49.948;8.472;2023-05-10T10:54:59;85.90;;;3.42;;
4895;SDS011;2463;49.948;8.472;2023-05-10T10:57:27;85.93;;;3.53;;
4895;SDS011;2463;49.948;8.472;2023-05-10T11:02:50;87.25;;;3.95;;
4895;SDS011;2463;49.948;8.472;2023-05-10T11:07:59;87.97;;;3.90;;
4895;SDS011;2463;49.948;8.472;2023-05-10T11:10:26;87.93;;;4.07;;
4895;SDS011;2463;49.948;8.472;2023-05-10T11:12:59;86.20;;;3.80;;
4895;SDS011;2463;49.948;8.472;2023-05-10T11:15:31;88.97;;;3.80;;
4895;SDS011;2463;49.948;8.472;2023-05-10T11:17:58;86.18;;;3.78;;
4895;SDS011;2463;49.948;8.472;2023-05-10T11:20:29;87.97;;;3.70;;
4895;SDS011;2463;49.948;8.472;2023-05-10T11:23:12;87.70;;;3.60;;
4895;SDS011;2463;49.948;8.472;2023-05-10T11:25:42;86.78;;;3.50;;
4895;SDS011;2463;49.948;8.472;2023-05-10T11:28:13;85.32;;;3.50;;
4895;SDS011;2463;49.948;8.472;2023-05-10T11:30:41;85.85;;;3.60;;
4895;SDS011;2463;49.948;8.472;2023-05-10T11:33:14;85.25;;;3.60;;
4895;SDS011;2463;49.948;8.472;2023-05-10T11:35:42;92.47;;;3.50;;
4895;SDS011;2463;49.948;8.472;2023-05-10T11:38:12;85.22;;;3.28;;
4895;SDS011;2463;49.948;8.472;2023-05-10T11:40:40;85.07;;;3.28;;
4895;SDS011;2463;49.948;8.472;2023-05-10T11:43:08;85.13;;;3.40;;
4895;SDS011;2463;49.948;8.472;2023-05-10T11:45:36;84.70;;;3.25;;
4895;SDS011;2463;49.948;8.472;2023-05-10T11:48:03;85.72;;;3.20;;
4895;SDS011;2463;49.948;8.472;2023-05-10T11:50:30;84.10;;;3.05;;
4895;SDS011;2463;49.948;8.472;2023-05-10T11:52:57;84.90;;;3.20;;
4895;SDS011;2463;49.948;8.472;2023-05-10T11:55:24;84.25;;;3.28;;
4895;SDS011;2463;49.948;8.472;2023-05-10T11:57:51;83.15;;;3.25;;
4895;SDS011;2463;49.948;8.472;2023-05-10T12:00:19;83.88;;;3.00;;
4895;SDS011;2463;49.948;8.472;2023-05-10T12:02:46;85.00;;;3.30;;
4895;SDS011;2463;49.948;8.472;2023-05-10T12:05:14;86.63;;;3.08;;
4895;SDS011;2463;49.948;8.472;2023-05-10T12:07:41;83.28;;;2.80;;
4895;SDS011;2463;49.948;8.472;2023-05-10T12:12:39;83.68;;;3.05;;
4895;SDS011;2463;49.948;8.472;2023-05-10T12:15:10;83.22;;;3.13;;
4895;SDS011;2463;49.948;8.472;2023-05-10T12:17:39;83.60;;;3.03;;
4895;SDS011;2463;49.948;8.472;2023-05-10T12:20:15;83.82;;;3.40;;
4895;SDS011;2463;49.948;8.472;2023-05-10T12:25:13;84.28;;;3.17;;
4895;SDS011;2463;49.948;8.472;2023-05-10T12:27:39;83.30;;;3.05;;
4895;SDS011;2463;49.948;8.472;2023-05-10T12:30:07;82.97;;;3.15;;
4895;SDS011;2463;49.948;8.472;2023-05-10T12:32:37;83.88;;;3.22;;
4895;SDS011;2463;49.948;8.472;2023-05-10T12:35:05;83.63;;;3.05;;
4895;SDS011;2463;49.948;8.472;2023-05-10T12:37:32;88.82;;;3.28;;
4895;SDS011;2463;49.948;8.472;2023-05-10T12:40:08;82.15;;;3.00;;
4895;SDS011;2463;49.948;8.472;2023-05-10T12:42:37;84.40;;;3.20;;
4895;SDS011;2463;49.948;8.472;2023-05-10T12:45:05;83.75;;;3.10;;
4895;SDS011;2463;49.948;8.472;2023-05-10T12:47:33;82.88;;;3.17;;
4895;SDS011;2463;49.948;8.472;2023-05-10T12:50:01;84.28;;;3.08;;
4895;SDS011;2463;49.948;8.472;2023-05-10T12:52:28;83.28;;;3.22;;
4895;SDS011;2463;49.948;8.472;2023-05-10T12:54:55;83.32;;;2.90;;
4895;SDS011;2463;49.948;8.472;2023-05-10T12:57:22;85.13;;;3.22;;
4895;SDS011;2463;49.948;8.472;2023-05-10T12:59:49;83.43;;;3.00;;
4895;SDS011;2463;49.948;8.472;2023-05-10T13:02:16;82.72;;;3.08;;
4895;SDS011;2463;49.948;8.472;2023-05-10T13:04:47;85.93;;;2.90;;
4895;SDS011;2463;49.948;8.472;2023-05-10T13:07:16;83.93;;;3.13;;
4895;SDS011;2463;49.948;8.472;2023-05-10T13:09:43;82.93;;;2.97;;
4895;SDS011;2463;49.948;8.472;2023-05-10T13:12:09;82.53;;;3.05;;
4895;SDS011;2463;49.948;8.472;2023-05-10T13:14:36;81.82;;;2.92;;
4895;SDS011;2463;49.948;8.472;2023-05-10T13:17:03;82.22;;;2.88;;
4895;SDS011;2463;49.948;8.472;2023-05-10T13:19:30;82.97;;;3.50;;
4895;SDS011;2463;49.948;8.472;2023-05-10T13:21:56;92.95;;;3.20;;
4895;SDS011;2463;49.948;8.472;2023-05-10T13:24:24;89.60;;;3.70;;
4895;SDS011;2463;49.948;8.472;2023-05-10T13:26:50;85.90;;;3.30;;
4895;SDS011;2463;49.948;8.472;2023-05-10T13:29:17;84.30;;;3.10;;
4895;SDS011;2463;49.948;8.472;2023-05-10T13:31:45;84.63;;;3.28;;
4895;SDS011;2463;49.948;8.472;2023-05-10T13:34:12;84.28;;;3.42;;
4895;SDS011;2463;49.948;8.472;2023-05-10T13:36:38;88.05;;;4.03;;
4895;SDS011;2463;49.948;8.472;2023-05-10T13:39:05;84.72;;;3.40;;
4895;SDS011;2463;49.948;8.472;2023-05-10T13:41:32;87.60;;;3.58;;
4895;SDS011;2463;49.948;8.472;2023-05-10T13:43:59;84.32;;;3.60;;
4895;SDS011;2463;49.948;8.472;2023-05-10T13:46:26;85.60;;;3.67;;
4895;SDS011;2463;49.948;8.472;2023-05-10T13:48:52;86.95;;;3.35;;
4895;SDS011;2463;49.948;8.472;2023-05-10T13:51:19;86.50;;;3.47;;
4895;SDS011;2463;49.948;8.472;2023-05-10T13:53:46;84.30;;;3.40;;
4895;SDS011;2463;49.948;8.472;2023-05-10T13:56:13;83.28;;;3.50;;
4895;SDS011;2463;49.948;8.472;2023-05-10T13:58:40;83.50;;;3.25;;
4895;SDS011;2463;49.948;8.472;2023-05-10T14:01:07;86.95;;;3.35;;
4895;SDS011;2463;49.948;8.472;2023-05-10T14:03:34;85.35;;;3.30;;
4895;SDS011;2463;49.948;8.472;2023-05-10T14:06:00;83.60;;;3.30;;
4895;SDS011;2463;49.948;8.472;2023-05-10T14:08:27;83.05;;;3.25;;
4895;SDS011;2463;49.948;8.472;2023-05-10T14:10:54;84.15;;;3.72;;
4895;SDS011;2463;49.948;8.472;2023-05-10T14:13:22;84.90;;;3.55;;
4895;SDS011;2463;49.948;8.472;2023-05-10T14:15:49;83.68;;;3.38;;
4895;SDS011;2463;49.948;8.472;2023-05-10T14:18:16;83.05;;;2.97;;
4895;SDS011;2463;49.948;8.472;2023-05-10T14:20:43;83.38;;;3.28;;
4895;SDS011;2463;49.948;8.472;2023-05-10T14:23:10;82.28;;;3.10;;
4895;SDS011;2463;49.948;8.472;2023-05-10T14:25:38;85.68;;;3.08;;
4895;SDS011;2463;49.948;8.472;2023-05-10T14:28:07;84.50;;;3.30;;
4895;SDS011;2463;49.948;8.472;2023-05-10T14:30:34;83.25;;;3.10;;
4895;SDS011;2463;49.948;8.472;2023-05-10T14:33:01;82.85;;;3.10;;
4895;SDS011;2463;49.948;8.472;2023-05-10T14:35:28;83.97;;;3.45;;
4895;SDS011;2463;49.948;8.472;2023-05-10T14:37:57;83.72;;;3.38;;
4895;SDS011;2463;49.948;8.472;2023-05-10T14:40:24;84.72;;;3.40;;
4895;SDS011;2463;49.948;8.472;2023-05-10T14:42:52;83.70;;;3.10;;
4895;SDS011;2463;49.948;8.472;2023-05-10T14:45:19;85.88;;;3.88;;
4895;SDS011;2463;49.948;8.472;2023-05-10T14:47:47;88.53;;;3.55;;
4895;SDS011;2463;49.948;8.472;2023-05-10T14:50:13;83.07;;;3.20;;
4895;SDS011;2463;49.948;8.472;2023-05-10T14:53:00;84.68;;;3.35;;
4895;SDS011;2463;49.948;8.472;2023-05-10T14:55:26;84.63;;;3.50;;
4895;SDS011;2463;49.948;8.472;2023-05-10T14:57:53;83.95;;;3.40;;
4895;SDS011;2463;49.948;8.472;2023-05-10T15:00:20;85.40;;;3.35;;
4895;SDS011;2463;49.948;8.472;2023-05-10T15:02:48;86.47;;;3.70;;
4895;SDS011;2463;49.948;8.472;2023-05-10T15:05:15;85.80;;;3.63;;
4895;SDS011;2463;49.948;8.472;2023-05-10T15:07:43;85.10;;;3.40;;
4895;SDS011;2463;49.948;8.472;2023-05-10T15:10:10;85.55;;;3.30;;
4895;SDS011;2463;49.948;8.472;2023-05-10T15:12:37;85.78;;;3.60;;
4895;SDS011;2463;49.948;8.472;2023-05-10T15:15:04;84.95;;;3.38;;
4895;SDS011;2463;49.948;8.472;2023-05-10T15:17:32;88.05;;;3.78;;
4895;SDS011;2463;49.948;8.472;2023-05-10T15:19:59;86.18;;;3.35;;
4895;SDS011;2463;49.948;8.472;2023-05-10T15:22:28;84.75;;;3.38;;
4895;SDS011;2463;49.948;8.472;2023-05-10T15:24:56;85.32;;;3.33;;
4895;SDS011;2463;49.948;8.472;2023-05-10T15:27:22;85.63;;;3.50;;
4895;SDS011;2463;49.948;8.472;2023-05-10T15:29:49;85.43;;;3.70;;
4895;SDS011;2463;49.948;8.472;2023-05-10T15:32:16;85.47;;;3.70;;
4895;SDS011;2463;49.948;8.472;2023-05-10T15:34:42;90.50;;;3.80;;
4895;SDS011;2463;49.948;8.472;2023-05-10T15:37:09;85.90;;;3.50;;
4895;SDS011;2463;49.948;8.472;2023-05-10T15:39:36;87.50;;;3.65;;
4895;SDS011;2463;49.948;8.472;2023-05-10T15:42:03;85.95;;;3.80;;
4895;SDS011;2463;49.948;8.472;2023-05-10T15:44:30;87.13;;;3.88;;
4895;SDS011;2463;49.948;8.472;2023-05-10T15:46:56;85.80;;;3.47;;